sensor_id;sensor_type;location;lat;lon;timestamp;temperature;humidity
10654;DHT22;5375;51.250;6.776;2023-03-01T00:01:53;18.40;41.80
10654;DHT22;5375;51.250;6.776;2023-03-01T00:04:19;18.40;41.80
10654;DHT22;5375;51.250;6.776;2023-03-01T00:06:45;18.40;42.00
10654;DHT22;5375;51.250;6.776;2023-03-01T00:09:15;18.40;41.80
10654;DHT22;5375;51.250;6.776;2023-03-01T00:11:41;18.40;41.80
10654;DHT22;5375;51.250;6.776;2023-03-01T00:14:07;18.30;41.80
10654;DHT22;5375;51.250;6.776;2023-03-01T00:16:35;18.30;41.70
10654;DHT22;5375;51.250;6.776;2023-03-01T00:19:02;18.30;41.70
10654;DHT22;5375;51.250;6.776;2023-03-01T00:21:28;18.30;41.70
10654;DHT22;5375;51.250;6.776;2023-03-01T00:23:54;18.30;41.70
10654;DHT22;5375;51.250;6.776;2023-03-01T00:26:21;18.30;41.70
10654;DHT22;5375;51.250;6.776;2023-03-01T00:28:47;18.30;41.70
10654;DHT22;5375;51.250;6.776;2023-03-01T00:31:18;18.30;41.90
10654;DHT22;5375;51.250;6.776;2023-03-01T00:33:45;18.30;41.70
10654;DHT22;5375;51.250;6.776;2023-03-01T00:36:12;18.30;41.70
10654;DHT22;5375;51.250;6.776;2023-03-01T00:38:41;18.30;41.70
10654;DHT22;5375;51.250;6.776;2023-03-01T00:41:09;18.40;41.70
10654;DHT22;5375;51.250;6.776;2023-03-01T00:43:35;18.30;41.70
10654;DHT22;5375;51.250;6.776;2023-03-01T00:46:18;18.30;41.80
10654;DHT22;5375;51.250;6.776;2023-03-01T00:48:44;18.30;41.60
10654;DHT22;5375;51.250;6.776;2023-03-01T00:51:15;18.30;41.70
10654;DHT22;5375;51.250;6.776;2023-03-01T00:53:41;18.30;41.70
10654;DHT22;5375;51.250;6.776;2023-03-01T00:56:09;18.30;41.70
10654;DHT22;5375;51.250;6.776;2023-03-01T00:58:36;18.30;41.70
10654;DHT22;5375;51.250;6.776;2023-03-01T01:01:11;18.10;41.50
10654;DHT22;5375;51.250;6.776;2023-03-01T01:04:04;18.30;41.60
10654;DHT22;5375;51.250;6.776;2023-03-01T01:06:42;18.30;41.60
10654;DHT22;5375;51.250;6.776;2023-03-01T01:09:10;18.30;41.70
10654;DHT22;5375;51.250;6.776;2023-03-01T01:11:47;18.30;41.70
10654;DHT22;5375;51.250;6.776;2023-03-01T01:14:14;18.20;41.60
10654;DHT22;5375;51.250;6.776;2023-03-01T01:16:40;18.20;41.60
10654;DHT22;5375;51.250;6.776;2023-03-01T01:19:06;18.30;41.70
10654;DHT22;5375;51.250;6.776;2023-03-01T01:21:31;18.60;41.80
10654;DHT22;5375;51.250;6.776;2023-03-01T01:23:57;18.20;41.60
10654;DHT22;5375;51.250;6.776;2023-03-01T01:26:26;18.20;41.60
10654;DHT22;5375;51.250;6.776;2023-03-01T01:28:53;18.20;41.60
10654;DHT22;5375;51.250;6.776;2023-03-01T01:31:19;18.20;41.60
10654;DHT22;5375;51.250;6.776;2023-03-01T01:33:45;18.20;41.80
10654;DHT22;5375;51.250;6.776;2023-03-01T01:36:11;18.20;41.60
10654;DHT22;5375;51.250;6.776;2023-03-01T01:38:38;18.20;41.60
10654;DHT22;5375;51.250;6.776;2023-03-01T01:41:04;18.20;41.60
10654;DHT22;5375;51.250;6.776;2023-03-01T01:43:34;18.40;41.70
10654;DHT22;5375;51.250;6.776;2023-03-01T01:46:16;18.20;41.50
10654;DHT22;5375;51.250;6.776;2023-03-01T01:48:46;18.20;41.50
10654;DHT22;5375;51.250;6.776;2023-03-01T01:51:18;18.30;41.60
10654;DHT22;5375;51.250;6.776;2023-03-01T01:53:47;18.20;41.50
10654;DHT22;5375;51.250;6.776;2023-03-01T01:56:15;18.20;41.50
10654;DHT22;5375;51.250;6.776;2023-03-01T01:58:42;18.20;41.50
10654;DHT22;5375;51.250;6.776;2023-03-01T02:01:09;18.20;41.50
10654;DHT22;5375;51.250;6.776;2023-03-01T02:03:37;18.20;41.40
10654;DHT22;5375;51.250;6.776;2023-03-01T02:06:15;18.20;41.40
10654;DHT22;5375;51.250;6.776;2023-03-01T02:08:44;18.20;41.40
10654;DHT22;5375;51.250;6.776;2023-03-01T02:11:12;18.20;41.40
10654;DHT22;5375;51.250;6.776;2023-03-01T02:13:40;18.20;41.60
10654;DHT22;5375;51.250;6.776;2023-03-01T02:16:11;18.20;41.70
10654;DHT22;5375;51.250;6.776;2023-03-01T02:18:40;18.20;41.70
10654;DHT22;5375;51.250;6.776;2023-03-01T02:23:55;18.30;41.90
10654;DHT22;5375;51.250;6.776;2023-03-01T02:26:39;18.10;41.70
10654;DHT22;5375;51.250;6.776;2023-03-01T02:29:07;18.20;41.60
10654;DHT22;5375;51.250;6.776;2023-03-01T02:31:33;18.20;41.60
10654;DHT22;5375;51.250;6.776;2023-03-01T02:34:14;18.20;41.50
10654;DHT22;5375;51.250;6.776;2023-03-01T02:36:47;18.20;41.40
10654;DHT22;5375;51.250;6.776;2023-03-01T02:39:18;18.30;41.40
10654;DHT22;5375;51.250;6.776;2023-03-01T02:41:51;18.20;41.40
10654;DHT22;5375;51.250;6.776;2023-03-01T02:44:17;18.40;41.60
10654;DHT22;5375;51.250;6.776;2023-03-01T02:46:46;18.20;41.30
10654;DHT22;5375;51.250;6.776;2023-03-01T02:49:28;18.20;41.20
10654;DHT22;5375;51.250;6.776;2023-03-01T02:54:50;18.20;41.10
10654;DHT22;5375;51.250;6.776;2023-03-01T02:57:18;18.20;41.10
10654;DHT22;5375;51.250;6.776;2023-03-01T02:59:45;18.10;41.10
10654;DHT22;5375;51.250;6.776;2023-03-01T03:02:31;18.10;41.10
10654;DHT22;5375;51.250;6.776;2023-03-01T03:05:14;18.20;41.00
10654;DHT22;5375;51.250;6.776;2023-03-01T03:07:42;18.10;41.10
10654;DHT22;5375;51.250;6.776;2023-03-01T03:10:15;18.20;41.00
10654;DHT22;5375;51.250;6.776;2023-03-01T03:12:41;18.10;40.90
10654;DHT22;5375;51.250;6.776;2023-03-01T03:15:09;18.10;40.90
10654;DHT22;5375;51.250;6.776;2023-03-01T03:17:36;18.10;40.90
10654;DHT22;5375;51.250;6.776;2023-03-01T03:20:07;18.10;40.90
10654;DHT22;5375;51.250;6.776;2023-03-01T03:22:38;18.10;40.80
10654;DHT22;5375;51.250;6.776;2023-03-01T03:25:05;18.10;40.90
10654;DHT22;5375;51.250;6.776;2023-03-01T03:27:31;18.10;40.90
10654;DHT22;5375;51.250;6.776;2023-03-01T03:29:57;18.10;41.20
10654;DHT22;5375;51.250;6.776;2023-03-01T03:32:23;18.10;41.30
10654;DHT22;5375;51.250;6.776;2023-03-01T03:34:48;18.10;42.00
10654;DHT22;5375;51.250;6.776;2023-03-01T03:37:14;18.10;41.30
10654;DHT22;5375;51.250;6.776;2023-03-01T03:40:00;18.10;41.10
10654;DHT22;5375;51.250;6.776;2023-03-01T03:42:26;18.10;41.00
10654;DHT22;5375;51.250;6.776;2023-03-01T03:44:51;18.10;41.00
10654;DHT22;5375;51.250;6.776;2023-03-01T03:47:17;18.10;41.20
10654;DHT22;5375;51.250;6.776;2023-03-01T03:49:43;18.10;40.90
10654;DHT22;5375;51.250;6.776;2023-03-01T03:52:08;18.10;40.80
10654;DHT22;5375;51.250;6.776;2023-03-01T03:54:40;18.10;40.80
10654;DHT22;5375;51.250;6.776;2023-03-01T03:57:06;18.10;40.80
10654;DHT22;5375;51.250;6.776;2023-03-01T03:59:32;18.10;40.80
10654;DHT22;5375;51.250;6.776;2023-03-01T04:01:57;18.10;40.70
10654;DHT22;5375;51.250;6.776;2023-03-01T04:04:23;18.10;40.80
10654;DHT22;5375;51.250;6.776;2023-03-01T04:06:49;18.10;40.70
10654;DHT22;5375;51.250;6.776;2023-03-01T04:09:15;18.00;40.60
10654;DHT22;5375;51.250;6.776;2023-03-01T04:11:40;18.10;40.70
10654;DHT22;5375;51.250;6.776;2023-03-01T04:14:06;18.10;40.80
10654;DHT22;5375;51.250;6.776;2023-03-01T04:16:32;18.00;40.50
10654;DHT22;5375;51.250;6.776;2023-03-01T04:18:57;18.00;40.50
10654;DHT22;5375;51.250;6.776;2023-03-01T04:21:25;18.00;40.50
10654;DHT22;5375;51.250;6.776;2023-03-01T04:23:51;18.10;40.50
10654;DHT22;5375;51.250;6.776;2023-03-01T04:26:20;18.00;40.50
10654;DHT22;5375;51.250;6.776;2023-03-01T04:28:46;18.00;40.40
10654;DHT22;5375;51.250;6.776;2023-03-01T04:31:16;18.00;40.60
10654;DHT22;5375;51.250;6.776;2023-03-01T04:33:47;18.10;40.50
10654;DHT22;5375;51.250;6.776;2023-03-01T04:36:15;18.00;40.40
10654;DHT22;5375;51.250;6.776;2023-03-01T04:38:41;18.00;40.50
10654;DHT22;5375;51.250;6.776;2023-03-01T04:41:09;18.00;40.50
10654;DHT22;5375;51.250;6.776;2023-03-01T04:43:35;18.00;40.50
10654;DHT22;5375;51.250;6.776;2023-03-01T04:46:02;18.00;41.20
10654;DHT22;5375;51.250;6.776;2023-03-01T04:48:29;18.20;40.70
10654;DHT22;5375;51.250;6.776;2023-03-01T04:50:55;18.00;40.60
10654;DHT22;5375;51.250;6.776;2023-03-01T04:53:20;18.00;40.60
10654;DHT22;5375;51.250;6.776;2023-03-01T04:55:46;18.00;40.60
10654;DHT22;5375;51.250;6.776;2023-03-01T04:58:11;18.00;40.70
10654;DHT22;5375;51.250;6.776;2023-03-01T05:00:37;17.20;40.30
10654;DHT22;5375;51.250;6.776;2023-03-01T05:03:03;18.00;40.70
10654;DHT22;5375;51.250;6.776;2023-03-01T05:05:35;18.10;40.80
10654;DHT22;5375;51.250;6.776;2023-03-01T05:08:05;18.00;40.80
10654;DHT22;5375;51.250;6.776;2023-03-01T05:10:34;18.00;41.10
10654;DHT22;5375;51.250;6.776;2023-03-01T05:13:01;18.00;41.20
10654;DHT22;5375;51.250;6.776;2023-03-01T05:15:29;18.10;41.30
10654;DHT22;5375;51.250;6.776;2023-03-01T05:17:58;18.10;41.30
10654;DHT22;5375;51.250;6.776;2023-03-01T05:20:25;18.10;41.40
10654;DHT22;5375;51.250;6.776;2023-03-01T05:22:51;18.10;41.40
10654;DHT22;5375;51.250;6.776;2023-03-01T05:25:17;18.10;41.50
10654;DHT22;5375;51.250;6.776;2023-03-01T05:27:43;18.10;41.50
10654;DHT22;5375;51.250;6.776;2023-03-01T05:30:10;18.20;41.80
10654;DHT22;5375;51.250;6.776;2023-03-01T05:32:47;18.20;41.70
10654;DHT22;5375;51.250;6.776;2023-03-01T05:35:14;18.20;41.70
10654;DHT22;5375;51.250;6.776;2023-03-01T05:37:42;18.20;41.70
10654;DHT22;5375;51.250;6.776;2023-03-01T05:40:17;18.20;41.70
10654;DHT22;5375;51.250;6.776;2023-03-01T05:42:49;18.20;41.70
10654;DHT22;5375;51.250;6.776;2023-03-01T05:45:16;18.30;42.40
10654;DHT22;5375;51.250;6.776;2023-03-01T05:47:43;18.30;41.70
10654;DHT22;5375;51.250;6.776;2023-03-01T05:52:39;18.30;41.70
10654;DHT22;5375;51.250;6.776;2023-03-01T05:55:05;18.30;41.70
10654;DHT22;5375;51.250;6.776;2023-03-01T05:57:31;18.30;41.60
10654;DHT22;5375;51.250;6.776;2023-03-01T05:59:57;18.30;41.60
10654;DHT22;5375;51.250;6.776;2023-03-01T06:02:23;18.30;41.60
10654;DHT22;5375;51.250;6.776;2023-03-01T06:04:48;18.40;41.60
10654;DHT22;5375;51.250;6.776;2023-03-01T06:07:14;18.40;41.50
10654;DHT22;5375;51.250;6.776;2023-03-01T06:09:40;18.40;41.40
10654;DHT22;5375;51.250;6.776;2023-03-01T06:12:05;18.40;41.40
10654;DHT22;5375;51.250;6.776;2023-03-01T06:14:31;18.40;41.50
10654;DHT22;5375;51.250;6.776;2023-03-01T06:16:57;18.40;41.40
10654;DHT22;5375;51.250;6.776;2023-03-01T06:19:23;18.40;41.50
10654;DHT22;5375;51.250;6.776;2023-03-01T06:21:49;18.40;41.30
10654;DHT22;5375;51.250;6.776;2023-03-01T06:24:14;18.40;41.30
10654;DHT22;5375;51.250;6.776;2023-03-01T06:26:40;18.40;41.30
10654;DHT22;5375;51.250;6.776;2023-03-01T06:29:06;18.40;41.10
10654;DHT22;5375;51.250;6.776;2023-03-01T06:31:32;18.50;41.30
10654;DHT22;5375;51.250;6.776;2023-03-01T06:33:58;18.50;41.20
10654;DHT22;5375;51.250;6.776;2023-03-01T06:36:24;18.50;41.10
10654;DHT22;5375;51.250;6.776;2023-03-01T06:38:49;18.50;41.00
10654;DHT22;5375;51.250;6.776;2023-03-01T06:41:15;18.60;41.10
10654;DHT22;5375;51.250;6.776;2023-03-01T06:43:41;18.50;41.10
10654;DHT22;5375;51.250;6.776;2023-03-01T06:46:06;18.50;41.10
10654;DHT22;5375;51.250;6.776;2023-03-01T06:48:33;18.50;41.00
10654;DHT22;5375;51.250;6.776;2023-03-01T06:51:00;18.50;40.90
10654;DHT22;5375;51.250;6.776;2023-03-01T06:53:29;18.50;40.90
10654;DHT22;5375;51.250;6.776;2023-03-01T06:55:58;18.50;40.90
10654;DHT22;5375;51.250;6.776;2023-03-01T06:58:25;18.50;40.80
10654;DHT22;5375;51.250;6.776;2023-03-01T07:00:51;18.50;41.10
10654;DHT22;5375;51.250;6.776;2023-03-01T07:03:17;18.50;40.80
10654;DHT22;5375;51.250;6.776;2023-03-01T07:05:43;18.50;40.80
10654;DHT22;5375;51.250;6.776;2023-03-01T07:08:10;18.50;41.10
10654;DHT22;5375;51.250;6.776;2023-03-01T07:10:36;18.60;40.90
10654;DHT22;5375;51.250;6.776;2023-03-01T07:13:02;18.50;40.80
10654;DHT22;5375;51.250;6.776;2023-03-01T07:15:27;18.50;40.80
10654;DHT22;5375;51.250;6.776;2023-03-01T07:17:53;18.50;40.80
10654;DHT22;5375;51.250;6.776;2023-03-01T07:20:20;18.50;40.90
10654;DHT22;5375;51.250;6.776;2023-03-01T07:22:50;18.50;40.80
10654;DHT22;5375;51.250;6.776;2023-03-01T07:25:15;18.50;40.80
10654;DHT22;5375;51.250;6.776;2023-03-01T07:27:41;18.50;40.70
10654;DHT22;5375;51.250;6.776;2023-03-01T07:30:07;18.50;40.80
10654;DHT22;5375;51.250;6.776;2023-03-01T07:32:33;18.50;40.70
10654;DHT22;5375;51.250;6.776;2023-03-01T07:34:59;18.50;40.90
10654;DHT22;5375;51.250;6.776;2023-03-01T07:37:25;18.50;40.70
10654;DHT22;5375;51.250;6.776;2023-03-01T07:39:50;18.50;40.70
10654;DHT22;5375;51.250;6.776;2023-03-01T07:42:16;18.50;40.70
10654;DHT22;5375;51.250;6.776;2023-03-01T07:44:42;18.50;40.70
10654;DHT22;5375;51.250;6.776;2023-03-01T07:47:07;18.50;41.30
10654;DHT22;5375;51.250;6.776;2023-03-01T07:49:33;18.50;40.80
10654;DHT22;5375;51.250;6.776;2023-03-01T07:51:58;18.50;40.70
10654;DHT22;5375;51.250;6.776;2023-03-01T07:54:24;18.50;40.70
10654;DHT22;5375;51.250;6.776;2023-03-01T07:56:51;18.50;40.70
10654;DHT22;5375;51.250;6.776;2023-03-01T07:59:17;18.50;40.70
10654;DHT22;5375;51.250;6.776;2023-03-01T08:01:43;18.50;40.60
10654;DHT22;5375;51.250;6.776;2023-03-01T08:04:09;18.50;40.70
10654;DHT22;5375;51.250;6.776;2023-03-01T08:06:35;18.50;40.70
10654;DHT22;5375;51.250;6.776;2023-03-01T08:09:01;18.50;40.70
10654;DHT22;5375;51.250;6.776;2023-03-01T08:11:27;18.50;40.70
10654;DHT22;5375;51.250;6.776;2023-03-01T08:13:54;18.50;40.70
10654;DHT22;5375;51.250;6.776;2023-03-01T08:16:20;18.50;40.70
10654;DHT22;5375;51.250;6.776;2023-03-01T08:18:45;18.50;40.70
10654;DHT22;5375;51.250;6.776;2023-03-01T08:21:14;18.50;40.70
10654;DHT22;5375;51.250;6.776;2023-03-01T08:23:40;18.50;40.70
10654;DHT22;5375;51.250;6.776;2023-03-01T08:26:08;18.50;40.80
10654;DHT22;5375;51.250;6.776;2023-03-01T08:28:35;18.50;40.90
10654;DHT22;5375;51.250;6.776;2023-03-01T08:31:01;18.60;40.70
10654;DHT22;5375;51.250;6.776;2023-03-01T08:33:27;18.50;40.70
10654;DHT22;5375;51.250;6.776;2023-03-01T08:36:02;18.50;40.70
10654;DHT22;5375;51.250;6.776;2023-03-01T08:38:28;18.60;40.80
10654;DHT22;5375;51.250;6.776;2023-03-01T08:40:54;18.50;40.80
10654;DHT22;5375;51.250;6.776;2023-03-01T08:43:19;18.50;40.90
10654;DHT22;5375;51.250;6.776;2023-03-01T08:45:47;18.50;41.00
10654;DHT22;5375;51.250;6.776;2023-03-01T08:48:13;18.50;41.00
10654;DHT22;5375;51.250;6.776;2023-03-01T08:50:39;18.50;40.70
10654;DHT22;5375;51.250;6.776;2023-03-01T08:53:04;18.50;40.70
10654;DHT22;5375;51.250;6.776;2023-03-01T08:55:30;18.50;40.70
10654;DHT22;5375;51.250;6.776;2023-03-01T08:57:56;18.50;40.60
10654;DHT22;5375;51.250;6.776;2023-03-01T09:00:24;18.50;40.60
10654;DHT22;5375;51.250;6.776;2023-03-01T09:02:50;18.50;40.60
10654;DHT22;5375;51.250;6.776;2023-03-01T09:05:16;18.50;40.80
10654;DHT22;5375;51.250;6.776;2023-03-01T09:07:41;18.50;40.50
10654;DHT22;5375;51.250;6.776;2023-03-01T09:10:08;18.50;40.50
10654;DHT22;5375;51.250;6.776;2023-03-01T09:12:34;18.50;40.60
10654;DHT22;5375;51.250;6.776;2023-03-01T09:14:59;18.50;40.50
10654;DHT22;5375;51.250;6.776;2023-03-01T09:17:25;18.50;40.50
10654;DHT22;5375;51.250;6.776;2023-03-01T09:19:51;18.50;40.50
10654;DHT22;5375;51.250;6.776;2023-03-01T09:22:16;18.50;40.50
10654;DHT22;5375;51.250;6.776;2023-03-01T09:24:42;18.40;40.40
10654;DHT22;5375;51.250;6.776;2023-03-01T09:27:08;18.50;40.70
10654;DHT22;5375;51.250;6.776;2023-03-01T09:29:36;18.40;40.40
10654;DHT22;5375;51.250;6.776;2023-03-01T09:32:02;18.50;40.50
10654;DHT22;5375;51.250;6.776;2023-03-01T09:34:28;18.40;40.40
10654;DHT22;5375;51.250;6.776;2023-03-01T09:36:54;18.50;40.50
10654;DHT22;5375;51.250;6.776;2023-03-01T09:39:19;18.40;40.50
10654;DHT22;5375;51.250;6.776;2023-03-01T09:42:00;18.40;40.50
10654;DHT22;5375;51.250;6.776;2023-03-01T09:47:02;18.40;40.50
10654;DHT22;5375;51.250;6.776;2023-03-01T09:49:36;18.40;40.50
10654;DHT22;5375;51.250;6.776;2023-03-01T09:54:30;18.40;40.50
10654;DHT22;5375;51.250;6.776;2023-03-01T10:02:37;18.40;40.60
10654;DHT22;5375;51.250;6.776;2023-03-01T10:05:19;18.40;40.60
10654;DHT22;5375;51.250;6.776;2023-03-01T10:10:38;18.40;40.60
10654;DHT22;5375;51.250;6.776;2023-03-01T10:15:45;18.40;40.80
10654;DHT22;5375;51.250;6.776;2023-03-01T10:18:17;18.40;40.60
10654;DHT22;5375;51.250;6.776;2023-03-01T10:20:54;18.40;40.60
10654;DHT22;5375;51.250;6.776;2023-03-01T10:23:23;18.40;40.50
10654;DHT22;5375;51.250;6.776;2023-03-01T10:31:16;18.40;40.80
10654;DHT22;5375;51.250;6.776;2023-03-01T10:33:44;18.40;40.70
10654;DHT22;5375;51.250;6.776;2023-03-01T10:36:09;18.40;40.90
10654;DHT22;5375;51.250;6.776;2023-03-01T10:38:53;18.40;40.60
10654;DHT22;5375;51.250;6.776;2023-03-01T10:41:21;18.40;40.50
10654;DHT22;5375;51.250;6.776;2023-03-01T10:43:52;18.40;40.70
10654;DHT22;5375;51.250;6.776;2023-03-01T10:46:37;18.40;40.60
10654;DHT22;5375;51.250;6.776;2023-03-01T10:49:31;18.40;40.70
10654;DHT22;5375;51.250;6.776;2023-03-01T10:52:11;18.40;40.70
10654;DHT22;5375;51.250;6.776;2023-03-01T10:54:52;18.40;40.80
10654;DHT22;5375;51.250;6.776;2023-03-01T10:57:32;18.40;40.90
10654;DHT22;5375;51.250;6.776;2023-03-01T11:00:20;18.40;40.90
10654;DHT22;5375;51.250;6.776;2023-03-01T11:02:50;18.40;40.90
10654;DHT22;5375;51.250;6.776;2023-03-01T11:05:21;18.50;41.00
10654;DHT22;5375;51.250;6.776;2023-03-01T11:07:54;18.40;41.00
10654;DHT22;5375;51.250;6.776;2023-03-01T11:12:52;18.40;41.00
10654;DHT22;5375;51.250;6.776;2023-03-01T11:15:37;18.50;41.10
10654;DHT22;5375;51.250;6.776;2023-03-01T11:18:03;18.50;41.00
10654;DHT22;5375;51.250;6.776;2023-03-01T11:20:34;18.50;41.00
10654;DHT22;5375;51.250;6.776;2023-03-01T11:23:12;18.50;41.00
10654;DHT22;5375;51.250;6.776;2023-03-01T11:26:02;18.50;41.00
10654;DHT22;5375;51.250;6.776;2023-03-01T11:28:30;18.50;41.00
10654;DHT22;5375;51.250;6.776;2023-03-01T11:31:10;18.50;41.10
10654;DHT22;5375;51.250;6.776;2023-03-01T11:36:33;18.40;41.00
10654;DHT22;5375;51.250;6.776;2023-03-01T11:42:14;18.50;41.10
10654;DHT22;5375;51.250;6.776;2023-03-01T11:44:42;18.40;41.10
10654;DHT22;5375;51.250;6.776;2023-03-01T11:50:26;18.50;41.20
10654;DHT22;5375;51.250;6.776;2023-03-01T11:56:04;18.40;41.30
10654;DHT22;5375;51.250;6.776;2023-03-01T12:05:04;18.50;41.50
10654;DHT22;5375;51.250;6.776;2023-03-01T12:10:48;18.50;41.40
10654;DHT22;5375;51.250;6.776;2023-03-01T12:13:51;18.50;41.50
10654;DHT22;5375;51.250;6.776;2023-03-01T12:22:31;18.50;41.60
10654;DHT22;5375;51.250;6.776;2023-03-01T12:33:56;18.50;41.60
10654;DHT22;5375;51.250;6.776;2023-03-01T12:39:55;18.60;41.70
10654;DHT22;5375;51.250;6.776;2023-03-01T12:50:24;18.50;41.80
10654;DHT22;5375;51.250;6.776;2023-03-01T12:52:57;18.60;41.80
10654;DHT22;5375;51.250;6.776;2023-03-01T12:55:31;18.60;41.90
10654;DHT22;5375;51.250;6.776;2023-03-01T12:58:35;18.60;41.80
10654;DHT22;5375;51.250;6.776;2023-03-01T13:01:15;18.60;41.80
10654;DHT22;5375;51.250;6.776;2023-03-01T13:09:19;18.60;41.80
10654;DHT22;5375;51.250;6.776;2023-03-01T13:11:48;18.60;41.80
10654;DHT22;5375;51.250;6.776;2023-03-01T13:16:46;18.60;41.90
10654;DHT22;5375;51.250;6.776;2023-03-01T13:21:44;18.60;42.00
10654;DHT22;5375;51.250;6.776;2023-03-01T13:27:10;18.60;41.90
10654;DHT22;5375;51.250;6.776;2023-03-01T13:29:57;18.60;42.00
10654;DHT22;5375;51.250;6.776;2023-03-01T13:32:31;18.60;41.90
10654;DHT22;5375;51.250;6.776;2023-03-01T13:37:44;18.60;42.00
10654;DHT22;5375;51.250;6.776;2023-03-01T13:42:54;18.60;42.00
10654;DHT22;5375;51.250;6.776;2023-03-01T13:45:39;18.60;42.00
10654;DHT22;5375;51.250;6.776;2023-03-01T13:48:21;18.60;42.00
10654;DHT22;5375;51.250;6.776;2023-03-01T13:50:51;18.60;42.10
10654;DHT22;5375;51.250;6.776;2023-03-01T13:53:21;18.60;42.10
10654;DHT22;5375;51.250;6.776;2023-03-01T14:01:04;18.70;42.20
10654;DHT22;5375;51.250;6.776;2023-03-01T14:03:31;18.60;42.10
10654;DHT22;5375;51.250;6.776;2023-03-01T14:06:14;18.60;42.10
10654;DHT22;5375;51.250;6.776;2023-03-01T14:08:41;18.70;42.20
10654;DHT22;5375;51.250;6.776;2023-03-01T14:11:48;18.70;42.20
10654;DHT22;5375;51.250;6.776;2023-03-01T14:16:50;18.70;42.20
10654;DHT22;5375;51.250;6.776;2023-03-01T14:19:23;18.70;42.20
10654;DHT22;5375;51.250;6.776;2023-03-01T14:22:20;18.70;42.20
10654;DHT22;5375;51.250;6.776;2023-03-01T14:24:52;18.70;42.20
10654;DHT22;5375;51.250;6.776;2023-03-01T14:27:19;18.70;42.20
10654;DHT22;5375;51.250;6.776;2023-03-01T14:29:55;18.70;42.20
10654;DHT22;5375;51.250;6.776;2023-03-01T14:32:25;18.70;42.30
10654;DHT22;5375;51.250;6.776;2023-03-01T14:34:51;18.70;42.30
10654;DHT22;5375;51.250;6.776;2023-03-01T14:37:27;18.70;42.20
10654;DHT22;5375;51.250;6.776;2023-03-01T14:39:54;18.70;42.20
10654;DHT22;5375;51.250;6.776;2023-03-01T14:42:22;18.70;42.30
10654;DHT22;5375;51.250;6.776;2023-03-01T14:44:50;18.70;42.50
10654;DHT22;5375;51.250;6.776;2023-03-01T14:50:03;18.70;42.40
10654;DHT22;5375;51.250;6.776;2023-03-01T14:52:39;18.70;42.50
10654;DHT22;5375;51.250;6.776;2023-03-01T14:55:19;18.70;42.50
10654;DHT22;5375;51.250;6.776;2023-03-01T14:57:48;18.70;42.50
10654;DHT22;5375;51.250;6.776;2023-03-01T15:00:26;18.70;42.40
10654;DHT22;5375;51.250;6.776;2023-03-01T15:02:55;18.70;42.30
10654;DHT22;5375;51.250;6.776;2023-03-01T15:05:40;18.70;42.40
10654;DHT22;5375;51.250;6.776;2023-03-01T15:08:07;18.70;42.40
10654;DHT22;5375;51.250;6.776;2023-03-01T15:10:59;18.70;43.10
10654;DHT22;5375;51.250;6.776;2023-03-01T15:13:30;18.70;42.40
10654;DHT22;5375;51.250;6.776;2023-03-01T15:16:09;18.70;42.50
10654;DHT22;5375;51.250;6.776;2023-03-01T15:18:36;18.70;42.40
10654;DHT22;5375;51.250;6.776;2023-03-01T15:21:15;18.70;42.50
10654;DHT22;5375;51.250;6.776;2023-03-01T15:23:41;18.70;42.40
10654;DHT22;5375;51.250;6.776;2023-03-01T15:26:25;18.70;42.50
10654;DHT22;5375;51.250;6.776;2023-03-01T15:28:53;19.20;42.70
10654;DHT22;5375;51.250;6.776;2023-03-01T15:31:37;18.70;42.50
10654;DHT22;5375;51.250;6.776;2023-03-01T15:36:53;18.80;42.50
10654;DHT22;5375;51.250;6.776;2023-03-01T15:39:31;18.70;42.60
10654;DHT22;5375;51.250;6.776;2023-03-01T15:42:17;18.70;42.60
10654;DHT22;5375;51.250;6.776;2023-03-01T15:47:47;18.90;42.40
10654;DHT22;5375;51.250;6.776;2023-03-01T15:50:56;18.90;42.40
10654;DHT22;5375;51.250;6.776;2023-03-01T15:53:15;18.80;42.40
10654;DHT22;5375;51.250;6.776;2023-03-01T15:55:41;18.80;42.50
10654;DHT22;5375;51.250;6.776;2023-03-01T15:58:13;18.80;42.50
10654;DHT22;5375;51.250;6.776;2023-03-01T16:00:39;18.80;42.50
10654;DHT22;5375;51.250;6.776;2023-03-01T16:03:05;18.80;42.50
10654;DHT22;5375;51.250;6.776;2023-03-01T16:05:34;18.80;42.60
10654;DHT22;5375;51.250;6.776;2023-03-01T16:08:00;18.80;42.60
10654;DHT22;5375;51.250;6.776;2023-03-01T16:10:26;18.80;42.70
10654;DHT22;5375;51.250;6.776;2023-03-01T16:12:52;18.80;42.60
10654;DHT22;5375;51.250;6.776;2023-03-01T16:15:19;18.80;42.50
10654;DHT22;5375;51.250;6.776;2023-03-01T16:17:45;18.80;42.70
10654;DHT22;5375;51.250;6.776;2023-03-01T16:20:11;19.10;42.70
10654;DHT22;5375;51.250;6.776;2023-03-01T16:22:37;18.80;42.60
10654;DHT22;5375;51.250;6.776;2023-03-01T16:25:03;18.80;42.50
10654;DHT22;5375;51.250;6.776;2023-03-01T16:27:29;18.80;42.50
10654;DHT22;5375;51.250;6.776;2023-03-01T16:29:54;18.80;42.50
10654;DHT22;5375;51.250;6.776;2023-03-01T16:32:20;18.80;42.60
10654;DHT22;5375;51.250;6.776;2023-03-01T16:34:46;18.80;42.60
10654;DHT22;5375;51.250;6.776;2023-03-01T16:37:15;18.80;42.60
10654;DHT22;5375;51.250;6.776;2023-03-01T16:39:41;18.80;42.50
10654;DHT22;5375;51.250;6.776;2023-03-01T16:42:07;18.80;42.50
10654;DHT22;5375;51.250;6.776;2023-03-01T16:44:33;18.80;42.40
10654;DHT22;5375;51.250;6.776;2023-03-01T16:46:58;19.20;42.60
10654;DHT22;5375;51.250;6.776;2023-03-01T16:49:24;18.80;42.40
10654;DHT22;5375;51.250;6.776;2023-03-01T16:51:49;18.80;42.30
10654;DHT22;5375;51.250;6.776;2023-03-01T16:54:15;18.80;42.40
10654;DHT22;5375;51.250;6.776;2023-03-01T16:56:41;18.80;42.30
10654;DHT22;5375;51.250;6.776;2023-03-01T16:59:07;18.80;42.30
10654;DHT22;5375;51.250;6.776;2023-03-01T17:01:33;18.80;42.30
10654;DHT22;5375;51.250;6.776;2023-03-01T17:04:03;18.80;42.30
10654;DHT22;5375;51.250;6.776;2023-03-01T17:06:29;18.80;42.30
10654;DHT22;5375;51.250;6.776;2023-03-01T17:08:56;18.80;42.30
10654;DHT22;5375;51.250;6.776;2023-03-01T17:11:22;18.80;42.20
10654;DHT22;5375;51.250;6.776;2023-03-01T17:13:48;18.70;42.20
10654;DHT22;5375;51.250;6.776;2023-03-01T17:16:17;18.80;42.30
10654;DHT22;5375;51.250;6.776;2023-03-01T17:18:43;18.80;42.30
10654;DHT22;5375;51.250;6.776;2023-03-01T17:21:09;18.80;42.20
10654;DHT22;5375;51.250;6.776;2023-03-01T17:23:37;18.70;42.10
10654;DHT22;5375;51.250;6.776;2023-03-01T17:26:03;18.80;42.20
10654;DHT22;5375;51.250;6.776;2023-03-01T17:28:31;18.70;42.20
10654;DHT22;5375;51.250;6.776;2023-03-01T17:30:59;18.70;42.20
10654;DHT22;5375;51.250;6.776;2023-03-01T17:33:25;18.70;42.10
10654;DHT22;5375;51.250;6.776;2023-03-01T17:35:50;18.70;42.30
10654;DHT22;5375;51.250;6.776;2023-03-01T17:38:17;18.70;42.10
10654;DHT22;5375;51.250;6.776;2023-03-01T17:40:43;18.70;42.20
10654;DHT22;5375;51.250;6.776;2023-03-01T17:43:13;18.70;42.10
10654;DHT22;5375;51.250;6.776;2023-03-01T17:45:39;18.70;42.10
10654;DHT22;5375;51.250;6.776;2023-03-01T17:48:06;18.70;42.20
10654;DHT22;5375;51.250;6.776;2023-03-01T17:50:32;18.70;42.00
10654;DHT22;5375;51.250;6.776;2023-03-01T17:52:58;18.70;42.60
10654;DHT22;5375;51.250;6.776;2023-03-01T17:55:24;18.70;41.90